sensor_id;sensor_type;location;lat;lon;timestamp;pressure;altitude;pressure_sealevel;temperature;humidity
74615;BME280;63121;51.458;-0.110;2022-11-02T00:00:16;100972.47;;;10.69;77.37
74615;BME280;63121;51.458;-0.110;2022-11-02T00:02:42;100986.22;;;10.71;77.49
74615;BME280;63121;51.458;-0.110;2022-11-02T00:05:11;100981.16;;;10.60;77.07
74615;BME280;63121;51.458;-0.110;2022-11-02T00:07:37;100988.81;;;10.71;77.70
74615;BME280;63121;51.458;-0.110;2022-11-02T00:10:02;101000.06;;;10.62;76.89
74615;BME280;63121;51.458;-0.110;2022-11-02T00:12:28;101006.88;;;10.72;77.29
74615;BME280;63121;51.458;-0.110;2022-11-02T00:14:53;101016.38;;;10.70;76.77
74615;BME280;63121;51.458;-0.110;2022-11-02T00:17:18;101017.31;;;10.55;76.92
74615;BME280;63121;51.458;-0.110;2022-11-02T00:19:44;101023.28;;;10.64;77.13
74615;BME280;63121;51.458;-0.110;2022-11-02T00:22:09;101030.13;;;10.72;77.08
74615;BME280;63121;51.458;-0.110;2022-11-02T00:24:34;101034.50;;;10.63;76.36
74615;BME280;63121;51.458;-0.110;2022-11-02T00:27:00;101051.66;;;10.68;76.88
74615;BME280;63121;51.458;-0.110;2022-11-02T00:29:26;101047.22;;;10.89;77.45
74615;BME280;63121;51.458;-0.110;2022-11-02T00:31:52;101057.75;;;10.61;76.47
74615;BME280;63121;51.458;-0.110;2022-11-02T00:34:17;101063.69;;;10.72;76.78
74615;BME280;63121;51.458;-0.110;2022-11-02T00:36:42;101063.75;;;10.60;76.50
74615;BME280;63121;51.458;-0.110;2022-11-02T00:39:08;101080.06;;;10.68;77.05
74615;BME280;63121;51.458;-0.110;2022-11-02T00:41:33;101081.84;;;10.58;76.06
74615;BME280;63121;51.458;-0.110;2022-11-02T00:43:59;101081.84;;;10.57;76.69
74615;BME280;63121;51.458;-0.110;2022-11-02T00:46:24;101092.16;;;10.60;76.51
74615;BME280;63121;51.458;-0.110;2022-11-02T00:48:49;101104.22;;;10.61;75.80
74615;BME280;63121;51.458;-0.110;2022-11-02T00:51:15;101105.09;;;10.58;76.20
74615;BME280;63121;51.458;-0.110;2022-11-02T00:53:40;101118.00;;;10.54;76.53
74615;BME280;63121;51.458;-0.110;2022-11-02T00:56:06;101119.78;;;10.44;76.19
74615;BME280;63121;51.458;-0.110;2022-11-02T00:58:31;101120.53;;;10.63;75.89
74615;BME280;63121;51.458;-0.110;2022-11-02T01:00:57;101130.91;;;10.57;76.04
74615;BME280;63121;51.458;-0.110;2022-11-02T01:03:22;101139.53;;;10.54;76.28
74615;BME280;63121;51.458;-0.110;2022-11-02T01:05:47;101145.53;;;10.53;75.41
74615;BME280;63121;51.458;-0.110;2022-11-02T01:08:13;101144.66;;;10.61;76.48
74615;BME280;63121;51.458;-0.110;2022-11-02T01:10:38;101155.88;;;10.56;75.72
74615;BME280;63121;51.458;-0.110;2022-11-02T01:13:04;101161.00;;;10.63;76.20
74615;BME280;63121;51.458;-0.110;2022-11-02T01:15:29;101165.34;;;10.47;75.31
74615;BME280;63121;51.458;-0.110;2022-11-02T01:17:54;101173.94;;;10.55;75.74
74615;BME280;63121;51.458;-0.110;2022-11-02T01:20:20;101182.56;;;10.45;75.54
74615;BME280;63121;51.458;-0.110;2022-11-02T01:22:45;101200.63;;;10.45;75.07
74615;BME280;63121;51.458;-0.110;2022-11-02T01:25:11;101191.16;;;10.45;75.40
74615;BME280;63121;51.458;-0.110;2022-11-02T01:27:36;101206.63;;;10.57;75.57
74615;BME280;63121;51.458;-0.110;2022-11-02T01:30:03;101205.75;;;10.54;75.64
74615;BME280;63121;51.458;-0.110;2022-11-02T01:32:29;101211.81;;;10.50;75.13
74615;BME280;63121;51.458;-0.110;2022-11-02T01:34:55;101217.78;;;10.67;75.74
74615;BME280;63121;51.458;-0.110;2022-11-02T01:37:20;101219.56;;;10.33;76.00
74615;BME280;63121;51.458;-0.110;2022-11-02T01:39:46;101216.94;;;10.56;76.05
74615;BME280;63121;51.458;-0.110;2022-11-02T01:42:16;101219.56;;;10.44;76.08
74615;BME280;63121;51.458;-0.110;2022-11-02T01:44:42;101229.88;;;10.41;76.52
74615;BME280;63121;51.458;-0.110;2022-11-02T01:47:17;101233.34;;;10.36;76.10
74615;BME280;63121;51.458;-0.110;2022-11-02T01:49:45;101241.06;;;10.44;76.85
74615;BME280;63121;51.458;-0.110;2022-11-02T01:52:18;101247.97;;;10.34;76.74
74615;BME280;63121;51.458;-0.110;2022-11-02T01:54:52;101253.16;;;10.31;76.43
74615;BME280;63121;51.458;-0.110;2022-11-02T01:57:20;101259.13;;;10.43;76.51
74615;BME280;63121;51.458;-0.110;2022-11-02T02:02:24;101276.34;;;10.47;76.65
74615;BME280;63121;51.458;-0.110;2022-11-02T02:05:17;101288.38;;;10.25;76.65
74615;BME280;63121;51.458;-0.110;2022-11-02T02:07:44;101288.38;;;10.38;76.50
74615;BME280;63121;51.458;-0.110;2022-11-02T02:10:10;101283.25;;;10.29;77.14
74615;BME280;63121;51.458;-0.110;2022-11-02T02:12:37;101285.81;;;10.38;77.36
74615;BME280;63121;51.458;-0.110;2022-11-02T02:15:04;101284.09;;;10.42;76.40
74615;BME280;63121;51.458;-0.110;2022-11-02T02:17:47;101297.00;;;10.41;76.72
74615;BME280;63121;51.458;-0.110;2022-11-02T02:23:07;101288.38;;;10.38;76.72
74615;BME280;63121;51.458;-0.110;2022-11-02T02:28:52;101308.16;;;10.49;77.05
74615;BME280;63121;51.458;-0.110;2022-11-02T02:31:32;101301.28;;;10.45;77.15
74615;BME280;63121;51.458;-0.110;2022-11-02T02:34:17;101303.88;;;10.35;77.33
74615;BME280;63121;51.458;-0.110;2022-11-02T02:36:50;101302.13;;;10.19;77.28
74615;BME280;63121;51.458;-0.110;2022-11-02T02:42:39;101316.75;;;10.28;77.80
74615;BME280;63121;51.458;-0.110;2022-11-02T02:45:25;101315.06;;;10.36;77.50
74615;BME280;63121;51.458;-0.110;2022-11-02T02:48:19;101321.06;;;10.27;76.66
74615;BME280;63121;51.458;-0.110;2022-11-02T02:50:48;101322.78;;;10.24;77.55
74615;BME280;63121;51.458;-0.110;2022-11-02T02:53:16;101324.50;;;10.26;77.20
74615;BME280;63121;51.458;-0.110;2022-11-02T02:55:45;101327.09;;;10.37;77.33
74615;BME280;63121;51.458;-0.110;2022-11-02T02:58:16;101338.25;;;10.13;76.93
74615;BME280;63121;51.458;-0.110;2022-11-02T03:00:43;101343.41;;;10.14;77.54
74615;BME280;63121;51.458;-0.110;2022-11-02T03:03:14;101339.97;;;10.22;76.99
74615;BME280;63121;51.458;-0.110;2022-11-02T03:05:41;101353.72;;;10.16;76.86
74615;BME280;63121;51.458;-0.110;2022-11-02T03:08:13;101360.59;;;10.09;77.19
74615;BME280;63121;51.458;-0.110;2022-11-02T03:10:49;101369.22;;;10.21;77.00
74615;BME280;63121;51.458;-0.110;2022-11-02T03:13:32;101370.91;;;10.14;77.13
74615;BME280;63121;51.458;-0.110;2022-11-02T03:16:05;101376.09;;;10.06;76.79
74615;BME280;63121;51.458;-0.110;2022-11-02T03:18:52;101373.50;;;10.08;76.79
74615;BME280;63121;51.458;-0.110;2022-11-02T03:21:29;101386.38;;;10.03;76.66
74615;BME280;63121;51.458;-0.110;2022-11-02T03:26:50;101399.31;;;10.11;76.41
74615;BME280;63121;51.458;-0.110;2022-11-02T03:29:27;101393.25;;;10.03;77.10
74615;BME280;63121;51.458;-0.110;2022-11-02T03:39:32;101409.66;;;10.25;76.21
74615;BME280;63121;51.458;-0.110;2022-11-02T03:42:01;101406.19;;;10.20;76.48
74615;BME280;63121;51.458;-0.110;2022-11-02T03:44:29;101407.06;;;10.18;76.45
74615;BME280;63121;51.458;-0.110;2022-11-02T03:46:57;101401.00;;;10.09;76.29
74615;BME280;63121;51.458;-0.110;2022-11-02T03:49:25;101410.50;;;10.19;76.14
74615;BME280;63121;51.458;-0.110;2022-11-02T03:51:54;101413.06;;;10.14;76.00
74615;BME280;63121;51.458;-0.110;2022-11-02T03:56:58;101415.66;;;10.19;75.55
74615;BME280;63121;51.458;-0.110;2022-11-02T03:59:30;101418.22;;;10.17;75.90
74615;BME280;63121;51.458;-0.110;2022-11-02T04:01:57;101432.00;;;10.12;76.34
74615;BME280;63121;51.458;-0.110;2022-11-02T04:04:24;101444.00;;;10.07;75.47
74615;BME280;63121;51.458;-0.110;2022-11-02T04:06:49;101444.84;;;10.00;75.82
74615;BME280;63121;51.458;-0.110;2022-11-02T04:09:16;101450.81;;;9.88;76.06
74615;BME280;63121;51.458;-0.110;2022-11-02T04:11:41;101456.91;;;10.04;75.71
74615;BME280;63121;51.458;-0.110;2022-11-02T04:14:25;101463.72;;;9.89;76.04
74615;BME280;63121;51.458;-0.110;2022-11-02T04:17:12;101464.59;;;9.91;75.74
74615;BME280;63121;51.458;-0.110;2022-11-02T04:19:56;101474.94;;;10.01;75.48
74615;BME280;63121;51.458;-0.110;2022-11-02T04:22:22;101473.22;;;10.00;75.40
74615;BME280;63121;51.458;-0.110;2022-11-02T04:25:10;101476.66;;;9.95;75.79
74615;BME280;63121;51.458;-0.110;2022-11-02T04:27:50;101479.22;;;9.98;75.50
74615;BME280;63121;51.458;-0.110;2022-11-02T04:30:18;101486.94;;;9.89;75.23
74615;BME280;63121;51.458;-0.110;2022-11-02T04:32:46;101486.13;;;10.09;75.35
74615;BME280;63121;51.458;-0.110;2022-11-02T04:35:31;101493.84;;;9.98;75.54
74615;BME280;63121;51.458;-0.110;2022-11-02T04:37:57;101494.66;;;9.92;75.62
74615;BME280;63121;51.458;-0.110;2022-11-02T04:40:42;101503.31;;;10.01;75.36
74615;BME280;63121;51.458;-0.110;2022-11-02T04:43:08;101505.88;;;9.96;75.35
74615;BME280;63121;51.458;-0.110;2022-11-02T04:45:34;101509.34;;;10.04;75.54
74615;BME280;63121;51.458;-0.110;2022-11-02T04:48:04;101508.47;;;9.97;75.56
74615;BME280;63121;51.458;-0.110;2022-11-02T04:50:31;101511.00;;;9.90;75.90
74615;BME280;63121;51.458;-0.110;2022-11-02T04:52:57;101515.28;;;9.83;75.53
74615;BME280;63121;51.458;-0.110;2022-11-02T04:55:23;101514.41;;;9.86;76.22
74615;BME280;63121;51.458;-0.110;2022-11-02T04:57:49;101515.31;;;9.92;75.78
74615;BME280;63121;51.458;-0.110;2022-11-02T05:00:15;101506.69;;;9.87;75.98
74615;BME280;63121;51.458;-0.110;2022-11-02T05:02:41;101515.28;;;9.83;76.17
74615;BME280;63121;51.458;-0.110;2022-11-02T05:05:06;101514.34;;;9.69;76.09
74615;BME280;63121;51.458;-0.110;2022-11-02T05:07:32;101510.94;;;9.74;75.94
74615;BME280;63121;51.458;-0.110;2022-11-02T05:09:57;101507.41;;;9.63;75.96
74615;BME280;63121;51.458;-0.110;2022-11-02T05:12:23;101525.56;;;9.77;75.88
74615;BME280;63121;51.458;-0.110;2022-11-02T05:14:48;101523.91;;;9.87;76.17
74615;BME280;63121;51.458;-0.110;2022-11-02T05:17:13;101523.84;;;9.82;75.72
74615;BME280;63121;51.458;-0.110;2022-11-02T05:19:40;101530.75;;;9.85;75.93
74615;BME280;63121;51.458;-0.110;2022-11-02T05:22:06;101540.19;;;9.81;75.87
74615;BME280;63121;51.458;-0.110;2022-11-02T05:24:32;101543.53;;;9.65;75.47
74615;BME280;63121;51.458;-0.110;2022-11-02T05:26:57;101537.56;;;9.75;75.53
74615;BME280;63121;51.458;-0.110;2022-11-02T05:29:24;101541.03;;;9.74;75.11
74615;BME280;63121;51.458;-0.110;2022-11-02T05:31:50;101542.84;;;9.93;75.21
74615;BME280;63121;51.458;-0.110;2022-11-02T05:34:15;101547.91;;;9.76;75.53
74615;BME280;63121;51.458;-0.110;2022-11-02T05:36:41;101546.25;;;9.92;75.22
74615;BME280;63121;51.458;-0.110;2022-11-02T05:39:06;101530.75;;;9.86;75.07
74615;BME280;63121;51.458;-0.110;2022-11-02T05:41:31;101535.06;;;9.86;75.49
74615;BME280;63121;51.458;-0.110;2022-11-02T05:43:57;101536.78;;;9.87;74.89
74615;BME280;63121;51.458;-0.110;2022-11-02T05:46:22;101539.31;;;9.82;74.79
74615;BME280;63121;51.458;-0.110;2022-11-02T05:48:48;101541.03;;;9.82;75.27
74615;BME280;63121;51.458;-0.110;2022-11-02T05:51:13;101538.47;;;9.79;74.40
74615;BME280;63121;51.458;-0.110;2022-11-02T05:53:38;101538.47;;;9.83;74.86
74615;BME280;63121;51.458;-0.110;2022-11-02T05:56:06;101530.72;;;9.80;74.38
74615;BME280;63121;51.458;-0.110;2022-11-02T05:58:32;101541.13;;;9.94;73.79
74615;BME280;63121;51.458;-0.110;2022-11-02T06:01:02;101532.53;;;9.93;74.10
74615;BME280;63121;51.458;-0.110;2022-11-02T06:03:28;101537.69;;;9.96;73.96
74615;BME280;63121;51.458;-0.110;2022-11-02T06:05:55;101538.53;;;9.94;74.05
74615;BME280;63121;51.458;-0.110;2022-11-02T06:08:21;101535.94;;;9.92;74.18
74615;BME280;63121;51.458;-0.110;2022-11-02T06:10:46;101538.53;;;9.94;74.08
74615;BME280;63121;51.458;-0.110;2022-11-02T06:13:13;101542.00;;;9.97;73.85
74615;BME280;63121;51.458;-0.110;2022-11-02T06:15:38;101538.50;;;9.88;73.83
74615;BME280;63121;51.458;-0.110;2022-11-02T06:18:03;101540.25;;;9.92;74.35
74615;BME280;63121;51.458;-0.110;2022-11-02T06:20:29;101540.25;;;9.95;73.90
74615;BME280;63121;51.458;-0.110;2022-11-02T06:22:54;101532.53;;;10.03;73.68
74615;BME280;63121;51.458;-0.110;2022-11-02T06:25:19;101529.94;;;9.96;73.52
74615;BME280;63121;51.458;-0.110;2022-11-02T06:27:55;101532.56;;;10.00;73.98
74615;BME280;63121;51.458;-0.110;2022-11-02T06:30:24;101539.44;;;10.07;74.28
74615;BME280;63121;51.458;-0.110;2022-11-02T06:32:51;101532.50;;;9.95;73.36
74615;BME280;63121;51.458;-0.110;2022-11-02T06:35:18;101540.31;;;10.04;74.04
74615;BME280;63121;51.458;-0.110;2022-11-02T06:37:44;101541.13;;;9.95;74.00
74615;BME280;63121;51.458;-0.110;2022-11-02T06:40:11;101532.56;;;10.00;73.40
74615;BME280;63121;51.458;-0.110;2022-11-02T06:42:37;101528.22;;;9.98;73.97
74615;BME280;63121;51.458;-0.110;2022-11-02T06:45:02;101529.06;;;9.94;73.64
74615;BME280;63121;51.458;-0.110;2022-11-02T06:47:31;101540.25;;;9.96;74.24
74615;BME280;63121;51.458;-0.110;2022-11-02T06:49:58;101539.44;;;10.04;73.90
74615;BME280;63121;51.458;-0.110;2022-11-02T06:52:23;101535.06;;;9.87;73.75
74615;BME280;63121;51.458;-0.110;2022-11-02T06:54:49;101541.16;;;10.02;73.99
74615;BME280;63121;51.458;-0.110;2022-11-02T06:57:14;101538.56;;;10.03;74.39
74615;BME280;63121;51.458;-0.110;2022-11-02T06:59:39;101549.75;;;10.07;73.85
74615;BME280;63121;51.458;-0.110;2022-11-02T07:02:05;101558.38;;;10.09;73.75
74615;BME280;63121;51.458;-0.110;2022-11-02T07:04:30;101565.22;;;10.01;73.55
74615;BME280;63121;51.458;-0.110;2022-11-02T07:06:55;101555.81;;;10.13;73.51
74615;BME280;63121;51.458;-0.110;2022-11-02T07:09:21;101563.56;;;10.12;73.40
74615;BME280;63121;51.458;-0.110;2022-11-02T07:11:46;101564.47;;;10.23;74.06
74615;BME280;63121;51.458;-0.110;2022-11-02T07:14:11;101559.31;;;10.23;73.82
74615;BME280;63121;51.458;-0.110;2022-11-02T07:16:37;101563.53;;;10.09;74.14
74615;BME280;63121;51.458;-0.110;2022-11-02T07:19:02;101570.41;;;10.08;74.08
74615;BME280;63121;51.458;-0.110;2022-11-02T07:21:28;101571.31;;;10.20;74.15
74615;BME280;63121;51.458;-0.110;2022-11-02T07:23:53;101561.81;;;10.09;74.33
74615;BME280;63121;51.458;-0.110;2022-11-02T07:26:19;101566.09;;;10.07;73.96
74615;BME280;63121;51.458;-0.110;2022-11-02T07:28:44;101569.63;;;10.23;74.09
74615;BME280;63121;51.458;-0.110;2022-11-02T07:31:10;101576.50;;;10.21;73.49
74615;BME280;63121;51.458;-0.110;2022-11-02T07:33:35;101568.81;;;10.30;74.00
74615;BME280;63121;51.458;-0.110;2022-11-02T07:36:04;101567.97;;;10.31;73.72
74615;BME280;63121;51.458;-0.110;2022-11-02T07:38:30;101570.56;;;10.41;73.31
74615;BME280;63121;51.458;-0.110;2022-11-02T07:40:55;101572.28;;;10.38;73.08
74615;BME280;63121;51.458;-0.110;2022-11-02T07:43:21;101574.06;;;10.58;73.01
74615;BME280;63121;51.458;-0.110;2022-11-02T07:45:46;101574.06;;;10.58;72.76
74615;BME280;63121;51.458;-0.110;2022-11-02T07:48:11;101580.06;;;10.49;73.14
74615;BME280;63121;51.458;-0.110;2022-11-02T07:50:37;101582.59;;;10.38;74.11
74615;BME280;63121;51.458;-0.110;2022-11-02T07:53:02;101585.16;;;10.32;73.84
74615;BME280;63121;51.458;-0.110;2022-11-02T07:55:29;101574.84;;;10.32;73.52
74615;BME280;63121;51.458;-0.110;2022-11-02T07:58:00;101594.63;;;10.32;73.46
74615;BME280;63121;51.458;-0.110;2022-11-02T08:00:28;101584.31;;;10.33;73.41
74615;BME280;63121;51.458;-0.110;2022-11-02T08:02:58;101585.22;;;10.51;73.55
74615;BME280;63121;51.458;-0.110;2022-11-02T08:05:24;101592.09;;;10.49;73.27
74615;BME280;63121;51.458;-0.110;2022-11-02T08:08:04;101589.56;;;10.56;73.50
74615;BME280;63121;51.458;-0.110;2022-11-02T08:10:31;101599.00;;;10.51;73.15
74615;BME280;63121;51.458;-0.110;2022-11-02T08:12:57;101598.19;;;10.63;72.98
74615;BME280;63121;51.458;-0.110;2022-11-02T08:15:23;101592.22;;;10.84;72.99
74615;BME280;63121;51.458;-0.110;2022-11-02T08:18:11;101599.09;;;10.93;72.47
74615;BME280;63121;51.458;-0.110;2022-11-02T08:20:36;101601.66;;;10.90;73.06
74615;BME280;63121;51.458;-0.110;2022-11-02T08:23:02;101599.97;;;10.95;72.56
74615;BME280;63121;51.458;-0.110;2022-11-02T08:25:28;101603.44;;;11.25;72.36
74615;BME280;63121;51.458;-0.110;2022-11-02T08:27:58;101603.47;;;11.32;72.22
74615;BME280;63121;51.458;-0.110;2022-11-02T08:30:25;101605.16;;;11.38;71.97
74615;BME280;63121;51.458;-0.110;2022-11-02T08:32:50;101597.44;;;11.43;72.16
74615;BME280;63121;51.458;-0.110;2022-11-02T08:35:15;101599.97;;;11.56;71.82
74615;BME280;63121;51.458;-0.110;2022-11-02T08:37:41;101599.97;;;11.67;71.70
74615;BME280;63121;51.458;-0.110;2022-11-02T08:40:07;101600.81;;;11.75;70.84
74615;BME280;63121;51.458;-0.110;2022-11-02T08:42:32;101593.91;;;11.70;71.62
74615;BME280;63121;51.458;-0.110;2022-11-02T08:44:58;101599.09;;;11.88;70.93
74615;BME280;63121;51.458;-0.110;2022-11-02T08:47:23;101596.50;;;12.00;71.05
74615;BME280;63121;51.458;-0.110;2022-11-02T08:49:49;101604.28;;;11.96;70.81
74615;BME280;63121;51.458;-0.110;2022-11-02T08:52:16;101602.44;;;12.24;70.07
74615;BME280;63121;51.458;-0.110;2022-11-02T08:54:42;101601.56;;;12.28;70.34
74615;BME280;63121;51.458;-0.110;2022-11-02T08:57:08;101607.53;;;12.46;69.89
74615;BME280;63121;51.458;-0.110;2022-11-02T08:59:33;101605.69;;;12.69;70.05
74615;BME280;63121;51.458;-0.110;2022-11-02T09:01:59;101609.22;;;12.51;70.16
74615;BME280;63121;51.458;-0.110;2022-11-02T09:04:24;101600.63;;;12.52;70.98
74615;BME280;63121;51.458;-0.110;2022-11-02T09:06:49;101601.34;;;12.76;69.58
74615;BME280;63121;51.458;-0.110;2022-11-02T09:09:15;101597.91;;;12.72;69.45
74615;BME280;63121;51.458;-0.110;2022-11-02T09:11:40;101602.13;;;12.87;69.57
74615;BME280;63121;51.458;-0.110;2022-11-02T09:14:07;101593.53;;;12.80;68.88
74615;BME280;63121;51.458;-0.110;2022-11-02T09:16:32;101586.53;;;12.93;69.72
74615;BME280;63121;51.458;-0.110;2022-11-02T09:18:58;101578.00;;;12.79;69.58
74615;BME280;63121;51.458;-0.110;2022-11-02T09:21:24;101576.91;;;13.12;68.76
74615;BME280;63121;51.458;-0.110;2022-11-02T09:23:49;101586.31;;;13.24;68.66
74615;BME280;63121;51.458;-0.110;2022-11-02T09:26:14;101562.94;;;13.26;67.63
74615;BME280;63121;51.458;-0.110;2022-11-02T09:28:40;101556.84;;;13.34;68.04
74615;BME280;63121;51.458;-0.110;2022-11-02T09:31:05;101563.56;;;13.60;67.56
74615;BME280;63121;51.458;-0.110;2022-11-02T09:33:31;101561.66;;;13.74;67.83
74615;BME280;63121;51.458;-0.110;2022-11-02T09:36:00;101550.41;;;13.74;67.02
74615;BME280;63121;51.458;-0.110;2022-11-02T09:38:26;101550.22;;;13.91;67.18
74615;BME280;63121;51.458;-0.110;2022-11-02T09:41:04;101554.50;;;13.98;66.97
74615;BME280;63121;51.458;-0.110;2022-11-02T09:46:19;101553.66;;;13.93;66.01
74615;BME280;63121;51.458;-0.110;2022-11-02T09:48:58;101554.31;;;14.12;65.49
74615;BME280;63121;51.458;-0.110;2022-11-02T09:51:26;101545.38;;;14.31;65.77
74615;BME280;63121;51.458;-0.110;2022-11-02T09:56:25;101558.47;;;14.25;65.02
74615;BME280;63121;51.458;-0.110;2022-11-02T09:58:59;101565.59;;;14.11;65.92
74615;BME280;63121;51.458;-0.110;2022-11-02T10:01:45;101557.09;;;13.98;66.66
74615;BME280;63121;51.458;-0.110;2022-11-02T10:04:28;101557.41;;;13.66;66.50
74615;BME280;63121;51.458;-0.110;2022-11-02T10:07:13;101560.72;;;13.80;66.79
74615;BME280;63121;51.458;-0.110;2022-11-02T10:10:10;101559.69;;;13.98;67.17
74615;BME280;63121;51.458;-0.110;2022-11-02T10:12:59;101559.28;;;14.29;65.31
74615;BME280;63121;51.458;-0.110;2022-11-02T10:15:35;101555.00;;;14.26;64.94
74615;BME280;63121;51.458;-0.110;2022-11-02T10:18:03;101545.53;;;14.20;65.46
74615;BME280;63121;51.458;-0.110;2022-11-02T10:20:50;101551.84;;;13.99;64.89
74615;BME280;63121;51.458;-0.110;2022-11-02T10:23:23;101548.69;;;14.44;64.26
74615;BME280;63121;51.458;-0.110;2022-11-02T10:25:49;101542.78;;;14.33;63.77
74615;BME280;63121;51.458;-0.110;2022-11-02T10:28:23;101544.38;;;14.44;64.61
74615;BME280;63121;51.458;-0.110;2022-11-02T10:30:51;101546.53;;;14.75;64.34
74615;BME280;63121;51.458;-0.110;2022-11-02T10:33:21;101544.09;;;14.64;64.92
74615;BME280;63121;51.458;-0.110;2022-11-02T10:46:52;101521.44;;;14.74;65.80
74615;BME280;63121;51.458;-0.110;2022-11-02T10:51:56;101525.72;;;14.78;66.08
74615;BME280;63121;51.458;-0.110;2022-11-02T10:54:21;101519.44;;;14.90;66.24
74615;BME280;63121;51.458;-0.110;2022-11-02T10:56:47;101514.56;;;14.70;66.01
74615;BME280;63121;51.458;-0.110;2022-11-02T10:59:20;101503.53;;;15.09;65.91
74615;BME280;63121;51.458;-0.110;2022-11-02T11:04:26;101496.81;;;15.45;64.11
74615;BME280;63121;51.458;-0.110;2022-11-02T11:06:52;101490.84;;;15.85;63.92
74615;BME280;63121;51.458;-0.110;2022-11-02T11:09:25;101472.44;;;15.94;62.68
74615;BME280;63121;51.458;-0.110;2022-11-02T11:11:55;101469.63;;;16.03;62.70
74615;BME280;63121;51.458;-0.110;2022-11-02T11:14:22;101466.69;;;15.80;63.50
74615;BME280;63121;51.458;-0.110;2022-11-02T11:16:56;101461.44;;;15.81;63.67
74615;BME280;63121;51.458;-0.110;2022-11-02T11:19:36;101451.88;;;15.82;63.97
74615;BME280;63121;51.458;-0.110;2022-11-02T11:24:46;101447.94;;;15.61;64.14
74615;BME280;63121;51.458;-0.110;2022-11-02T11:29:40;101455.44;;;15.33;64.77
74615;BME280;63121;51.458;-0.110;2022-11-02T11:32:14;101457.75;;;15.48;64.60
74615;BME280;63121;51.458;-0.110;2022-11-02T11:34:43;101451.97;;;15.32;64.56
74615;BME280;63121;51.458;-0.110;2022-11-02T11:37:11;101439.22;;;15.62;64.30
74615;BME280;63121;51.458;-0.110;2022-11-02T11:39:40;101429.94;;;15.50;64.27
74615;BME280;63121;51.458;-0.110;2022-11-02T11:42:17;101428.28;;;15.48;63.55
74615;BME280;63121;51.458;-0.110;2022-11-02T11:44:45;101422.03;;;15.55;63.33
74615;BME280;63121;51.458;-0.110;2022-11-02T11:47:15;101438.78;;;15.41;64.58
74615;BME280;63121;51.458;-0.110;2022-11-02T11:49:46;101414.44;;;15.44;64.98
74615;BME280;63121;51.458;-0.110;2022-11-02T11:52:23;101404.78;;;15.49;65.42
74615;BME280;63121;51.458;-0.110;2022-11-02T11:54:58;101390.91;;;15.52;65.93
74615;BME280;63121;51.458;-0.110;2022-11-02T11:57:29;101388.00;;;15.64;64.84
74615;BME280;63121;51.458;-0.110;2022-11-02T11:59:57;101383.34;;;15.39;65.98
74615;BME280;63121;51.458;-0.110;2022-11-02T12:02:32;101381.31;;;15.54;65.75
74615;BME280;63121;51.458;-0.110;2022-11-02T12:05:12;101362.03;;;15.62;65.54
74615;BME280;63121;51.458;-0.110;2022-11-02T12:07:54;101370.66;;;16.05;64.19
74615;BME280;63121;51.458;-0.110;2022-11-02T12:21:21;101328.34;;;15.95;62.39
74615;BME280;63121;51.458;-0.110;2022-11-02T12:26:38;101334.47;;;15.93;61.36
74615;BME280;63121;51.458;-0.110;2022-11-02T12:29:19;101333.75;;;15.86;61.49
74615;BME280;63121;51.458;-0.110;2022-11-02T12:32:15;101333.63;;;15.92;60.59
74615;BME280;63121;51.458;-0.110;2022-11-02T12:41:09;101323.47;;;16.17;58.73
74615;BME280;63121;51.458;-0.110;2022-11-02T12:43:49;101311.88;;;16.29;57.52
74615;BME280;63121;51.458;-0.110;2022-11-02T12:55:03;101288.25;;;16.02;56.78
74615;BME280;63121;51.458;-0.110;2022-11-02T12:57:35;101287.94;;;16.49;55.03
74615;BME280;63121;51.458;-0.110;2022-11-02T13:00:14;101279.13;;;16.53;55.55
74615;BME280;63121;51.458;-0.110;2022-11-02T13:03:00;101274.38;;;16.36;55.74
74615;BME280;63121;51.458;-0.110;2022-11-02T13:05:31;101268.41;;;16.31;56.17
74615;BME280;63121;51.458;-0.110;2022-11-02T13:08:13;101271.91;;;16.63;54.73
74615;BME280;63121;51.458;-0.110;2022-11-02T13:10:43;101277.78;;;16.38;55.07
74615;BME280;63121;51.458;-0.110;2022-11-02T13:13:16;101274.38;;;16.36;55.23
74615;BME280;63121;51.458;-0.110;2022-11-02T13:15:44;101261.63;;;16.57;55.76
74615;BME280;63121;51.458;-0.110;2022-11-02T13:18:28;101254.66;;;16.26;56.87
74615;BME280;63121;51.458;-0.110;2022-11-02T13:20:57;101250.19;;;16.62;56.82
74615;BME280;63121;51.458;-0.110;2022-11-02T13:23:30;101247.22;;;16.76;57.77
74615;BME280;63121;51.458;-0.110;2022-11-02T13:26:06;101245.41;;;16.47;57.56
74615;BME280;63121;51.458;-0.110;2022-11-02T13:28:42;101241.81;;;16.84;57.16
74615;BME280;63121;51.458;-0.110;2022-11-02T13:31:46;101228.56;;;16.92;58.14
74615;BME280;63121;51.458;-0.110;2022-11-02T13:34:21;101226.69;;;16.65;59.33
74615;BME280;63121;51.458;-0.110;2022-11-02T13:36:51;101216.13;;;16.37;59.86
74615;BME280;63121;51.458;-0.110;2022-11-02T13:39:30;101217.88;;;16.38;60.58
74615;BME280;63121;51.458;-0.110;2022-11-02T13:50:12;101214.75;;;16.25;60.70
74615;BME280;63121;51.458;-0.110;2022-11-02T13:52:44;101208.25;;;16.40;60.85
74615;BME280;63121;51.458;-0.110;2022-11-02T13:55:26;101206.00;;;16.59;60.38
74615;BME280;63121;51.458;-0.110;2022-11-02T13:57:58;101211.13;;;16.61;60.89
74615;BME280;63121;51.458;-0.110;2022-11-02T14:03:06;101203.78;;;16.75;60.40
74615;BME280;63121;51.458;-0.110;2022-11-02T14:05:46;101196.34;;;16.93;59.98
74615;BME280;63121;51.458;-0.110;2022-11-02T14:08:35;101188.13;;;16.75;59.65
74615;BME280;63121;51.458;-0.110;2022-11-02T14:11:35;101177.84;;;16.71;59.75
74615;BME280;63121;51.458;-0.110;2022-11-02T14:16:43;101157.28;;;16.61;61.69
74615;BME280;63121;51.458;-0.110;2022-11-02T14:27:00;101143.81;;;16.45;60.96
74615;BME280;63121;51.458;-0.110;2022-11-02T14:38:37;101115.97;;;16.48;61.07
74615;BME280;63121;51.458;-0.110;2022-11-02T14:48:51;101094.91;;;15.94;61.54
74615;BME280;63121;51.458;-0.110;2022-11-02T14:51:30;101083.69;;;16.23;61.20
74615;BME280;63121;51.458;-0.110;2022-11-02T14:54:03;101071.22;;;16.03;61.96